Time;durP1;ratioP1;P1;durP2;ratioP2;P2;SDS_P1;SDS_P2;PMS_P1;PMS_P2;Temp;Humidity;BMP_temperature;BMP_pressure;BME280_temperature;BME280_humidity;BME280_pressure;Samples;Min_cycle;Max_cycle;Signal;HPM_P1;HPM_P2
2021/09/04 00:02:19;;;;;;;1.93;1.60;;;13.80;98.00;;;;;;5094154;28;20508;-70
2021/09/04 00:04:46;;;;;;;1.20;1.10;;;14.00;98.00;;;;;;5094648;28;20511;-68
2021/09/04 00:07:16;;;;;;;1.57;1.43;;;13.80;98.00;;;;;;5095863;28;20850;-69
2021/09/04 00:09:43;;;;;;;1.67;1.60;;;13.80;98.00;;;;;;5095526;28;20518;-69
2021/09/04 00:12:10;;;;;;;1.83;1.30;;;13.80;98.00;;;;;;5095653;28;20454;-69
2021/09/04 00:14:40;;;;;;;1.87;1.80;;;13.90;98.00;;;;;;5095532;28;20481;-68
2021/09/04 00:17:09;;;;;;;1.60;1.33;;;13.90;98.00;;;;;;5095541;28;21134;-68
2021/09/04 00:19:37;;;;;;;3.23;2.50;;;13.80;98.00;;;;;;5095650;28;20455;-69
2021/09/04 00:22:05;;;;;;;2.33;1.80;;;13.70;98.00;;;;;;5095127;28;20517;-69
2021/09/04 00:24:33;;;;;;;3.00;1.70;;;13.80;98.00;;;;;;5095719;28;20481;-68
2021/09/04 00:27:00;;;;;;;1.37;1.37;;;13.60;98.00;;;;;;5095013;28;20465;-68
2021/09/04 00:29:27;;;;;;;3.93;1.50;;;13.50;98.00;;;;;;5095276;28;20912;-67
2021/09/04 00:31:56;;;;;;;1.50;1.30;;;13.60;98.00;;;;;;5093987;28;20462;-69
2021/09/04 00:34:24;;;;;;;1.77;1.50;;;13.70;98.00;;;;;;5094977;28;20459;-68
2021/09/04 00:36:51;;;;;;;1.30;1.30;;;13.80;98.00;;;;;;5095035;28;20459;-69
2021/09/04 00:39:18;;;;;;;2.50;1.70;;;13.60;98.00;;;;;;5095022;28;20956;-69
2021/09/04 00:41:46;;;;;;;1.80;1.57;;;13.70;98.00;;;;;;5094877;28;20548;-68
2021/09/04 00:44:15;;;;;;;3.27;1.50;;;13.80;98.00;;;;;;5094675;28;20458;-67
2021/09/04 00:46:44;;;;;;;2.50;1.57;;;13.70;98.00;;;;;;5094907;28;20487;-68
2021/09/04 00:49:12;;;;;;;2.80;1.90;;;13.40;98.00;;;;;;5094806;28;20465;-68
2021/09/04 00:51:40;;;;;;;1.90;1.60;;;13.40;98.00;;;;;;5094677;28;20446;-69
2021/09/04 00:54:07;;;;;;;2.17;1.50;;;13.30;98.00;;;;;;5094703;28;20533;-67
2021/09/04 00:56:38;;;;;;;2.20;1.93;;;13.20;98.00;;;;;;5094717;28;21330;-68
2021/09/04 00:59:07;;;;;;;2.20;1.60;;;13.20;98.00;;;;;;5094455;28;20456;-68
2021/09/04 01:01:42;;;;;;;1.73;1.30;;;13.30;98.00;;;;;;5094552;28;20479;-68
2021/09/04 01:04:09;;;;;;;1.70;1.47;;;13.20;98.00;;;;;;5094513;28;20496;-69
2021/09/04 01:06:36;;;;;;;3.70;1.80;;;13.20;98.00;;;;;;5094504;28;20448;-67
2021/09/04 01:09:05;;;;;;;2.00;1.53;;;13.20;98.00;;;;;;5094367;28;20488;-68
2021/09/04 01:11:32;;;;;;;1.40;1.37;;;13.20;98.00;;;;;;5094507;28;20454;-69
2021/09/04 01:14:01;;;;;;;2.90;1.63;;;13.00;98.00;;;;;;5093429;28;20872;-69
2021/09/04 01:16:35;;;;;;;1.83;1.40;;;13.20;98.00;;;;;;5094439;28;20446;-68
2021/09/04 01:19:02;;;;;;;2.37;1.87;;;13.20;98.00;;;;;;5094303;28;20457;-68
2021/09/04 01:21:30;;;;;;;1.80;1.40;;;13.10;98.00;;;;;;5094230;28;20481;-70
2021/09/04 01:23:57;;;;;;;1.70;1.40;;;13.10;98.00;;;;;;5094301;28;20926;-68
2021/09/04 01:26:26;;;;;;;1.43;1.33;;;13.10;98.00;;;;;;5094272;28;20489;-68
2021/09/04 01:28:55;;;;;;;1.43;1.37;;;13.20;98.00;;;;;;5094108;28;20531;-67
2021/09/04 01:31:22;;;;;;;1.60;1.20;;;13.20;98.00;;;;;;5093080;28;20544;-68
2021/09/04 01:33:50;;;;;;;1.50;1.40;;;13.10;98.00;;;;;;5094227;28;20456;-67
2021/09/04 01:36:28;;;;;;;1.30;1.20;;;13.10;98.00;;;;;;5094170;28;20458;-68
2021/09/04 01:38:55;;;;;;;1.20;1.10;;;13.00;98.00;;;;;;5094025;28;20469;-69
2021/09/04 01:41:22;;;;;;;1.67;1.33;;;13.10;98.00;;;;;;5094186;28;20524;-69
2021/09/04 01:43:50;;;;;;;1.60;1.40;;;13.00;98.00;;;;;;5093756;28;20540;-68
2021/09/04 01:46:17;;;;;;;1.80;1.53;;;12.90;98.00;;;;;;5094212;28;20452;-68
2021/09/04 01:48:44;;;;;;;1.30;1.20;;;12.80;98.00;;;;;;5093535;28;20455;-68
2021/09/04 01:51:12;;;;;;;1.60;1.30;;;12.80;98.00;;;;;;5093676;28;20551;-67
2021/09/04 01:53:39;;;;;;;1.90;1.20;;;12.80;98.00;;;;;;5093608;28;20502;-69
2021/09/04 01:56:06;;;;;;;1.50;1.20;;;12.80;98.00;;;;;;5093566;28;20453;-68
2021/09/04 01:58:33;;;;;;;3.00;1.60;;;12.70;98.00;;;;;;5093410;28;20459;-67
2021/09/04 02:01:02;;;;;;;1.90;1.50;;;12.70;98.00;;;;;;5093358;28;21272;-69
2021/09/04 02:03:29;;;;;;;2.20;1.23;;;12.70;98.00;;;;;;5092216;28;20488;-67
2021/09/04 02:05:56;;;;;;;1.40;1.37;;;12.80;98.00;;;;;;5093225;28;20500;-68
2021/09/04 02:08:23;;;;;;;1.53;1.17;;;12.80;98.00;;;;;;5093229;28;20459;-68
2021/09/04 02:10:50;;;;;;;1.63;1.40;;;12.80;98.00;;;;;;5093308;28;20459;-68
2021/09/04 02:13:17;;;;;;;1.57;1.40;;;12.80;98.00;;;;;;5093168;28;21032;-69
2021/09/04 02:15:44;;;;;;;1.83;1.43;;;12.80;98.00;;;;;;5093068;28;20451;-68
2021/09/04 02:18:14;;;;;;;1.50;1.33;;;12.80;98.00;;;;;;5093018;28;20488;-68
2021/09/04 02:20:40;;;;;;;2.90;1.63;;;12.80;98.00;;;;;;5092937;28;20495;-68
2021/09/04 02:23:07;;;;;;;1.87;1.30;;;12.80;98.00;;;;;;5092942;28;20499;-68
2021/09/04 02:25:35;;;;;;;1.80;1.73;;;12.80;98.00;;;;;;5092980;28;20508;-68
2021/09/04 02:28:03;;;;;;;1.70;1.50;;;12.80;98.00;;;;;;5092921;28;20456;-68
2021/09/04 02:30:30;;;;;;;2.37;1.53;;;12.80;98.00;;;;;;5092560;28;20488;-69
2021/09/04 02:32:57;;;;;;;4.43;1.50;;;12.80;98.00;;;;;;5092967;28;20457;-69
2021/09/04 02:35:26;;;;;;;1.20;1.20;;;12.70;98.00;;;;;;5092871;28;20498;-68
2021/09/04 02:37:53;;;;;;;1.20;1.10;;;12.60;98.00;;;;;;5092962;28;20510;-68
2021/09/04 02:40:20;;;;;;;1.50;1.30;;;12.60;98.00;;;;;;5092722;28;20497;-68
2021/09/04 02:42:47;;;;;;;2.20;1.27;;;12.60;98.00;;;;;;5092768;28;20529;-68
2021/09/04 02:45:14;;;;;;;1.80;1.40;;;12.60;98.00;;;;;;5092785;28;21161;-67
2021/09/04 02:47:41;;;;;;;1.83;1.57;;;12.60;98.00;;;;;;5092496;28;21011;-68
2021/09/04 02:50:08;;;;;;;1.57;1.33;;;12.50;98.00;;;;;;5092569;28;20535;-69
2021/09/04 02:52:37;;;;;;;2.47;1.50;;;12.70;98.00;;;;;;5092465;28;21008;-68
2021/09/04 02:55:05;;;;;;;1.60;1.30;;;12.80;98.00;;;;;;5092651;28;20536;-68
2021/09/04 02:57:32;;;;;;;3.57;1.70;;;12.70;98.00;;;;;;5092399;28;20486;-68
2021/09/04 02:59:59;;;;;;;1.50;1.30;;;12.60;98.00;;;;;;5092457;28;20816;-67
2021/09/04 03:02:26;;;;;;;2.33;1.70;;;12.50;98.00;;;;;;5092630;28;20576;-69
2021/09/04 03:04:53;;;;;;;3.40;1.63;;;12.40;98.00;;;;;;5092296;28;20480;-68
2021/09/04 03:07:20;;;;;;;2.23;1.30;;;12.40;98.00;;;;;;5092353;28;20932;-69
2021/09/04 03:09:48;;;;;;;1.30;1.10;;;12.40;98.00;;;;;;5092210;28;20490;-68
2021/09/04 03:12:15;;;;;;;3.17;1.80;;;12.30;98.00;;;;;;5092102;28;20458;-68
2021/09/04 03:14:42;;;;;;;2.80;1.20;;;12.30;98.00;;;;;;5092071;28;20493;-68
2021/09/04 03:17:09;;;;;;;3.10;1.23;;;12.30;98.00;;;;;;5092172;28;20496;-68
2021/09/04 03:19:37;;;;;;;6.80;1.70;;;12.40;98.00;;;;;;5091864;28;20502;-68
2021/09/04 03:22:06;;;;;;;1.63;1.40;;;12.20;98.00;;;;;;5091202;28;20573;-67
2021/09/04 03:24:35;;;;;;;1.97;1.60;;;12.20;98.00;;;;;;5091062;28;20478;-67
2021/09/04 03:27:07;;;;;;;1.27;1.17;;;12.20;98.00;;;;;;5091236;28;20459;-68
2021/09/04 03:29:35;;;;;;;6.63;1.50;;;12.10;98.00;;;;;;5091054;28;20516;-69
2021/09/04 03:32:02;;;;;;;1.30;1.10;;;12.10;98.00;;;;;;5090556;28;20487;-67
2021/09/04 03:34:29;;;;;;;2.03;1.57;;;12.00;98.00;;;;;;5091795;28;20484;-68
2021/09/04 03:36:56;;;;;;;1.30;1.20;;;11.90;98.00;;;;;;5091485;28;20976;-67
2021/09/04 03:39:23;;;;;;;1.30;1.13;;;11.80;98.00;;;;;;5091695;28;20967;-68
2021/09/04 03:41:50;;;;;;;1.33;1.20;;;11.90;98.00;;;;;;5091789;28;20522;-67
2021/09/04 03:44:19;;;;;;;1.30;1.20;;;12.00;98.00;;;;;;5090152;28;20458;-68
2021/09/04 03:46:46;;;;;;;1.57;1.43;;;11.90;98.00;;;;;;5091782;28;20456;-69
2021/09/04 03:49:13;;;;;;;1.50;1.10;;;12.00;98.00;;;;;;5091810;28;21022;-68
2021/09/04 03:51:41;;;;;;;2.23;1.40;;;12.20;98.00;;;;;;5091775;28;20484;-67
2021/09/04 03:54:09;;;;;;;1.30;1.20;;;12.10;98.00;;;;;;5090573;28;20456;-69
2021/09/04 03:56:36;;;;;;;1.73;1.50;;;12.00;98.00;;;;;;5091647;28;20497;-68
2021/09/04 03:59:02;;;;;;;1.20;1.10;;;11.90;98.00;;;;;;5091657;28;20456;-69
2021/09/04 04:01:31;;;;;;;2.37;1.67;;;11.80;98.00;;;;;;5091625;28;20512;-69
2021/09/04 04:03:58;;;;;;;1.60;1.40;;;11.80;98.00;;;;;;5091487;28;20527;-70
2021/09/04 04:06:25;;;;;;;1.43;1.20;;;11.90;98.00;;;;;;5091746;28;20454;-67
2021/09/04 04:08:54;;;;;;;3.83;1.80;;;11.70;98.00;;;;;;5091615;28;20458;-67
2021/09/04 04:11:21;;;;;;;1.50;1.20;;;11.60;98.00;;;;;;5074022;28;20451;-68
2021/09/04 04:13:48;;;;;;;1.20;1.20;;;11.60;98.00;;;;;;5091513;28;20537;-69
2021/09/04 04:16:15;;;;;;;2.40;1.30;;;11.60;98.00;;;;;;5091819;28;20497;-68
2021/09/04 04:18:44;;;;;;;1.40;1.30;;;11.60;98.00;;;;;;5091384;28;20545;-67
2021/09/04 04:21:11;;;;;;;1.83;1.33;;;11.60;98.00;;;;;;5091685;28;20510;-67
2021/09/04 04:23:38;;;;;;;1.70;1.27;;;11.70;98.00;;;;;;5091531;28;20529;-67
2021/09/04 04:26:05;;;;;;;4.27;1.43;;;11.90;98.00;;;;;;5091561;28;20492;-67
2021/09/04 04:28:31;;;;;;;2.00;1.40;;;12.10;98.00;;;;;;5090106;28;20499;-68
2021/09/04 04:31:01;;;;;;;1.27;1.20;;;12.00;98.00;;;;;;5091427;28;20974;-68
2021/09/04 04:33:28;;;;;;;3.93;1.60;;;11.90;98.00;;;;;;5090893;28;20494;-69
2021/09/04 04:36:04;;;;;;;2.03;1.13;;;11.80;98.00;;;;;;5091271;28;21093;-68
2021/09/04 04:38:31;;;;;;;1.87;1.17;;;11.70;98.00;;;;;;5089994;28;20461;-68
2021/09/04 04:40:59;;;;;;;1.80;1.33;;;11.60;98.00;;;;;;5091004;28;20487;-69
2021/09/04 04:43:26;;;;;;;1.40;1.20;;;11.50;98.00;;;;;;5091001;28;20506;-68
2021/09/04 04:45:54;;;;;;;2.37;1.40;;;11.40;98.00;;;;;;5091306;28;20495;-68
2021/09/04 04:48:20;;;;;;;1.90;1.57;;;11.60;98.00;;;;;;5091697;28;20459;-70
2021/09/04 04:50:47;;;;;;;1.20;1.10;;;11.70;98.00;;;;;;5094812;28;20499;-67
2021/09/04 04:53:18;;;;;;;3.10;1.47;;;11.70;98.00;;;;;;5094981;28;20487;-70
2021/09/04 04:55:45;;;;;;;1.40;1.20;;;11.80;98.00;;;;;;5094881;28;20461;-67
2021/09/04 04:58:12;;;;;;;1.50;1.17;;;11.90;98.00;;;;;;5093558;28;20554;-68
2021/09/04 05:00:39;;;;;;;1.60;1.27;;;11.80;98.00;;;;;;5094600;28;20499;-69
2021/09/04 05:03:08;;;;;;;1.30;1.20;;;11.80;98.00;;;;;;5094634;28;20518;-69
2021/09/04 05:05:36;;;;;;;1.40;1.20;;;11.80;98.00;;;;;;5094621;28;20480;-68
2021/09/04 05:08:04;;;;;;;1.30;1.10;;;11.90;98.00;;;;;;5094487;28;20513;-69
2021/09/04 05:10:32;;;;;;;2.63;1.57;;;12.00;98.00;;;;;;5094625;28;20494;-66
2021/09/04 05:12:59;;;;;;;1.20;1.00;;;12.10;98.00;;;;;;5094591;28;20883;-68
2021/09/04 05:15:26;;;;;;;1.40;1.10;;;12.10;98.00;;;;;;5094261;28;20529;-69
2021/09/04 05:17:53;;;;;;;1.30;1.10;;;12.10;98.00;;;;;;5094383;28;20494;-69
2021/09/04 05:20:20;;;;;;;1.40;1.03;;;12.10;98.00;;;;;;5094376;28;20983;-68
2021/09/04 05:22:47;;;;;;;2.50;1.30;;;11.90;98.00;;;;;;5094189;28;20563;-68
2021/09/04 05:25:15;;;;;;;1.67;1.30;;;11.80;98.00;;;;;;5094319;28;20545;-68
2021/09/04 05:27:43;;;;;;;1.30;1.20;;;11.60;98.00;;;;;;5094087;28;20512;-67
2021/09/04 05:30:13;;;;;;;2.97;1.60;;;11.80;98.00;;;;;;5094259;28;20524;-67
2021/09/04 05:32:40;;;;;;;1.47;1.30;;;11.90;98.00;;;;;;5093982;28;20463;-68
2021/09/04 05:35:08;;;;;;;4.07;1.40;;;12.00;98.00;;;;;;5093932;28;20445;-67
2021/09/04 05:37:35;;;;;;;1.60;1.33;;;11.90;98.00;;;;;;5094306;28;20565;-67
2021/09/04 05:40:02;;;;;;;2.70;1.70;;;12.00;98.00;;;;;;5093953;28;20557;-69
2021/09/04 05:42:29;;;;;;;1.30;1.10;;;12.10;98.00;;;;;;5093983;28;20563;-68
2021/09/04 05:44:58;;;;;;;1.97;1.33;;;12.20;98.00;;;;;;5094108;28;20489;-69
2021/09/04 05:47:25;;;;;;;1.80;1.20;;;12.20;98.00;;;;;;5093977;28;20498;-67
2021/09/04 05:49:52;;;;;;;2.80;1.93;;;12.10;98.00;;;;;;5093684;28;20484;-68
2021/09/04 05:52:19;;;;;;;1.33;1.27;;;12.00;98.00;;;;;;5093883;28;20532;-70
2021/09/04 05:54:46;;;;;;;2.20;1.70;;;11.90;98.00;;;;;;5092646;28;20444;-67
2021/09/04 05:57:13;;;;;;;1.60;1.47;;;11.90;98.00;;;;;;5093485;28;20245;-69
2021/09/04 05:59:40;;;;;;;2.73;1.27;;;11.80;98.00;;;;;;5093161;28;20479;-69
2021/09/04 06:02:08;;;;;;;2.60;1.57;;;11.70;98.00;;;;;;5093317;28;20677;-69
2021/09/04 06:04:37;;;;;;;1.20;1.00;;;11.80;98.00;;;;;;5093208;28;20459;-69
2021/09/04 06:07:04;;;;;;;4.13;1.57;;;11.80;98.00;;;;;;5093428;28;20801;-69
2021/09/04 06:09:31;;;;;;;1.93;1.30;;;11.90;98.00;;;;;;5093311;28;20479;-70
2021/09/04 06:11:58;;;;;;;1.70;1.57;;;12.00;98.00;;;;;;5093222;28;21002;-68
2021/09/04 06:14:25;;;;;;;1.40;1.30;;;12.10;98.00;;;;;;5093332;28;20483;-70
2021/09/04 06:16:52;;;;;;;1.47;1.30;;;12.20;98.00;;;;;;5093277;28;20513;-70
2021/09/04 06:19:24;;;;;;;3.67;1.60;;;12.30;98.00;;;;;;5093097;28;20525;-70
2021/09/04 06:21:51;;;;;;;1.50;1.43;;;12.40;98.00;;;;;;5093133;28;20993;-71
2021/09/04 06:24:18;;;;;;;1.30;1.10;;;12.60;98.00;;;;;;5093148;28;20506;-69
2021/09/04 06:26:47;;;;;;;1.67;1.60;;;12.70;98.00;;;;;;5093076;28;20542;-71
2021/09/04 06:29:14;;;;;;;2.30;1.50;;;12.80;98.00;;;;;;5092782;28;20974;-70
2021/09/04 06:31:43;;;;;;;1.60;1.60;;;12.90;98.00;;;;;;5091725;28;21017;-71
2021/09/04 06:34:10;;;;;;;1.60;1.53;;;13.00;98.00;;;;;;5092837;28;20942;-69
2021/09/04 06:36:38;;;;;;;1.30;1.30;;;13.10;98.00;;;;;;5092777;28;20497;-70
2021/09/04 06:39:05;;;;;;;3.07;1.90;;;13.20;98.00;;;;;;5092653;28;20456;-71
2021/09/04 06:41:32;;;;;;;1.53;1.20;;;13.30;98.00;;;;;;5092720;28;20541;-70
2021/09/04 06:43:59;;;;;;;2.67;2.30;;;13.40;98.00;;;;;;5092441;28;20522;-69
2021/09/04 06:46:32;;;;;;;2.83;1.60;;;13.50;98.00;;;;;;5092808;28;20870;-71
2021/09/04 06:49:00;;;;;;;1.40;1.23;;;13.60;98.00;;;;;;5092395;28;20452;-71
2021/09/04 06:51:28;;;;;;;6.50;1.47;;;13.60;98.00;;;;;;5091282;28;20489;-70
2021/09/04 06:53:57;;;;;;;1.83;1.80;;;13.70;98.00;;;;;;5092639;28;20495;-70
2021/09/04 06:56:25;;;;;;;1.70;1.60;;;13.70;98.00;;;;;;5092583;28;20494;-70
2021/09/04 06:58:52;;;;;;;5.07;1.27;;;13.70;98.00;;;;;;5092623;28;20634;-72
2021/09/04 07:01:20;;;;;;;1.37;1.33;;;13.90;98.00;;;;;;5092493;28;20489;-70
2021/09/04 07:03:47;;;;;;;2.70;1.80;;;13.90;98.00;;;;;;5092480;28;20578;-71
2021/09/04 07:06:14;;;;;;;3.43;1.50;;;13.90;98.00;;;;;;5092562;28;20869;-72
2021/09/04 07:08:42;;;;;;;1.37;1.20;;;14.00;98.00;;;;;;5092554;28;20493;-70
2021/09/04 07:11:10;;;;;;;1.87;1.77;;;14.10;98.00;;;;;;5091519;28;20969;-71
2021/09/04 07:13:41;;;;;;;2.63;1.90;;;14.20;98.00;;;;;;5092472;28;20453;-71
2021/09/04 07:16:08;;;;;;;3.37;1.97;;;14.30;98.00;;;;;;5091980;28;20454;-70
2021/09/04 07:18:35;;;;;;;1.50;1.47;;;14.40;98.00;;;;;;5092132;28;20488;-71
2021/09/04 07:21:02;;;;;;;1.53;1.50;;;14.40;98.00;;;;;;5089642;28;20546;-66
2021/09/04 07:23:30;;;;;;;2.03;1.50;;;14.50;98.00;;;;;;5106587;28;20489;-68
2021/09/04 07:25:57;;;;;;;3.00;1.70;;;14.70;98.00;;;;;;5092363;28;20552;-72
2021/09/04 07:28:26;;;;;;;1.60;1.40;;;14.80;98.00;;;;;;5091886;28;20502;-70
2021/09/04 07:30:54;;;;;;;1.60;1.47;;;14.90;98.00;;;;;;5091773;28;20466;-70
2021/09/04 07:33:21;;;;;;;2.33;1.60;;;14.90;98.00;;;;;;5091811;28;20449;-72
2021/09/04 07:35:49;;;;;;;1.77;1.60;;;15.00;98.00;;;;;;5091981;28;20512;-72
2021/09/04 07:38:17;;;;;;;1.83;1.50;;;15.10;98.00;;;;;;5091655;28;20476;-71
2021/09/04 07:40:44;;;;;;;2.17;1.60;;;15.20;98.00;;;;;;5091635;28;20944;-70
2021/09/04 07:43:11;;;;;;;1.73;1.40;;;15.30;98.00;;;;;;5091678;28;20489;-70
2021/09/04 07:45:43;;;;;;;1.50;1.40;;;15.40;98.00;;;;;;5091556;28;20489;-70
2021/09/04 07:48:09;;;;;;;1.90;1.57;;;15.50;98.00;;;;;;5091519;28;21175;-70
2021/09/04 07:50:37;;;;;;;3.77;2.20;;;15.60;98.00;;;;;;5091605;28;20903;-71
2021/09/04 07:53:05;;;;;;;2.40;1.63;;;15.80;98.00;;;;;;5091654;28;20451;-70
2021/09/04 07:55:34;;;;;;;6.43;2.40;;;15.90;98.00;;;;;;5091655;28;20501;-70
2021/09/04 07:58:01;;;;;;;1.60;1.50;;;16.00;98.00;;;;;;5090447;28;20486;-71
2021/09/04 08:00:29;;;;;;;1.53;1.47;;;16.10;98.00;;;;;;5091604;28;20502;-70
2021/09/04 08:02:57;;;;;;;1.63;1.40;;;16.40;98.00;;;;;;5091512;28;21078;-72
2021/09/04 08:05:25;;;;;;;1.90;1.70;;;16.50;98.00;;;;;;5091504;28;20970;-70
2021/09/04 08:07:52;;;;;;;2.47;1.63;;;16.60;98.00;;;;;;5091630;28;20448;-71
2021/09/04 08:10:19;;;;;;;1.60;1.50;;;16.90;98.00;;;;;;5091721;28;20490;-72
2021/09/04 08:12:46;;;;;;;2.00;1.70;;;17.00;98.00;;;;;;5091770;28;20479;-73
2021/09/04 08:15:13;;;;;;;3.90;1.90;;;17.00;98.00;;;;;;5073836;28;20488;-71
2021/09/04 08:17:40;;;;;;;1.53;1.30;;;17.10;98.00;;;;;;5091691;28;21014;-71
2021/09/04 08:20:10;;;;;;;1.60;1.53;;;17.20;98.00;;;;;;5091788;28;20509;-70
2021/09/04 08:22:38;;;;;;;1.70;1.40;;;17.30;98.00;;;;;;5092945;28;20501;-71
2021/09/04 08:25:06;;;;;;;1.77;1.43;;;17.50;98.00;;;;;;5095620;28;20456;-70
2021/09/04 08:27:33;;;;;;;1.83;1.50;;;17.60;98.00;;;;;;5095729;28;20517;-70
2021/09/04 08:30:00;;;;;;;1.97;1.73;;;17.80;98.00;;;;;;5095591;28;20452;-71
2021/09/04 08:32:27;;;;;;;2.20;1.73;;;17.90;98.00;;;;;;5095247;28;20463;-69
2021/09/04 08:34:54;;;;;;;1.33;1.30;;;18.20;98.00;;;;;;5095541;28;20882;-71
2021/09/04 08:37:22;;;;;;;3.37;1.80;;;18.30;98.00;;;;;;5095141;28;20499;-71
2021/09/04 08:39:49;;;;;;;1.70;1.40;;;18.50;98.00;;;;;;5095112;28;20451;-72
2021/09/04 08:42:16;;;;;;;1.47;1.40;;;18.60;98.00;;;;;;5095152;28;20495;-71
2021/09/04 08:44:44;;;;;;;1.33;1.33;;;18.80;98.00;;;;;;5094716;28;20526;-71
2021/09/04 08:47:12;;;;;;;1.60;1.30;;;19.00;98.00;;;;;;5094883;28;20471;-71
2021/09/04 08:49:40;;;;;;;3.30;1.87;;;19.00;98.00;;;;;;5095067;28;20487;-72
2021/09/04 08:52:07;;;;;;;1.40;1.30;;;19.20;98.00;;;;;;5093485;28;20550;-70
2021/09/04 08:54:37;;;;;;;1.77;1.60;;;19.40;98.00;;;;;;5094803;28;20486;-73
2021/09/04 08:57:05;;;;;;;2.27;1.60;;;19.50;98.00;;;;;;5094884;28;20491;-69
2021/09/04 08:59:32;;;;;;;3.07;1.70;;;19.70;98.00;;;;;;5093502;28;20464;-70
2021/09/04 09:01:59;;;;;;;1.57;1.53;;;19.80;98.00;;;;;;5094588;28;20483;-71
2021/09/04 09:04:26;;;;;;;1.70;1.63;;;19.90;98.00;;;;;;5094576;28;20567;-70
2021/09/04 09:06:53;;;;;;;1.30;1.30;;;20.00;98.00;;;;;;5094611;28;20942;-71
2021/09/04 09:09:22;;;;;;;3.47;1.53;;;20.20;98.00;;;;;;5093307;28;20991;-70
2021/09/04 09:11:51;;;;;;;1.77;1.30;;;20.50;98.00;;;;;;5094551;28;20513;-71
2021/09/04 09:14:20;;;;;;;1.50;1.33;;;20.70;98.00;;;;;;5094487;28;20460;-72
2021/09/04 09:16:55;;;;;;;2.33;1.83;;;20.90;98.00;;;;;;5094474;28;20593;-71
2021/09/04 09:19:25;;;;;;;2.17;2.00;;;21.20;98.00;;;;;;5094414;28;20559;-70
2021/09/04 09:21:54;;;;;;;2.80;1.87;;;21.30;98.00;;;;;;5094302;28;20588;-71
2021/09/04 09:24:22;;;;;;;1.60;1.30;;;21.50;98.00;;;;;;5094050;28;20489;-73
2021/09/04 09:26:54;;;;;;;1.90;1.60;;;21.80;98.00;;;;;;5094273;28;20444;-72
2021/09/04 09:29:24;;;;;;;2.20;1.80;;;21.90;98.00;;;;;;5093998;28;20556;-71
2021/09/04 09:32:00;;;;;;;1.97;1.60;;;22.10;98.00;;;;;;5094232;28;20448;-71
2021/09/04 09:34:28;;;;;;;2.00;1.70;;;22.30;98.00;;;;;;5092048;28;20460;-73
2021/09/04 09:36:59;;;;;;;2.07;1.60;;;22.40;98.00;;;;;;5094129;28;20535;-72
2021/09/04 09:39:27;;;;;;;2.20;1.50;;;22.60;98.00;;;;;;5093910;28;20503;-72
2021/09/04 09:41:57;;;;;;;2.23;1.63;;;22.70;96.50;;;;;;5094003;28;20949;-72
2021/09/04 09:44:26;;;;;;;2.27;1.50;;;22.80;98.00;;;;;;5094064;28;20515;-73
2021/09/04 09:46:55;;;;;;;2.40;2.00;;;23.00;98.00;;;;;;5093371;28;20506;-68
2021/09/04 09:49:30;;;;;;;2.57;1.97;;;23.20;94.40;;;;;;5106043;28;20463;-69
2021/09/04 09:51:59;;;;;;;2.83;2.00;;;23.40;96.50;;;;;;5100278;28;20495;-69
2021/09/04 09:54:30;;;;;;;1.53;1.43;;;23.60;95.20;;;;;;5099362;28;20466;-68
2021/09/04 09:56:59;;;;;;;1.83;1.73;;;23.80;94.60;;;;;;5094633;28;20544;-70
2021/09/04 09:59:29;;;;;;;2.37;1.90;;;24.00;92.90;;;;;;5100570;28;21528;-70
2021/09/04 10:01:57;;;;;;;2.00;1.70;;;24.20;90.60;;;;;;5106555;28;20486;-68
2021/09/04 10:04:28;;;;;;;2.77;1.93;;;24.30;91.50;;;;;;5094189;28;20880;-71
2021/09/04 10:06:56;;;;;;;3.93;2.20;;;24.50;90.20;;;;;;5109778;28;20463;-71
2021/09/04 10:09:25;;;;;;;2.43;1.80;;;24.60;86.70;;;;;;5104810;28;20468;-68
2021/09/04 10:11:53;;;;;;;2.77;2.17;;;24.70;89.00;;;;;;5102301;28;20549;-70
2021/09/04 10:14:24;;;;;;;2.40;1.90;;;24.80;89.60;;;;;;5101065;28;20513;-70
2021/09/04 10:16:55;;;;;;;2.27;1.97;;;24.80;90.40;;;;;;5097145;28;20512;-70
2021/09/04 10:19:25;;;;;;;2.87;2.03;;;25.00;87.50;;;;;;5096287;28;20508;-70
2021/09/04 10:21:59;;;;;;;1.97;1.60;;;25.10;89.60;;;;;;5100418;28;20925;-70
2021/09/04 10:24:50;;;;;;;1.97;1.83;;;25.30;88.80;;;;;;5107955;28;20491;-71
2021/09/04 10:27:42;;;;;;;3.10;1.90;;;25.40;86.80;;;;;;5106423;28;20508;-71
2021/09/04 10:30:40;;;;;;;2.10;1.70;;;25.60;88.60;;;;;;5093058;28;20491;-70
2021/09/04 10:33:09;;;;;;;2.60;1.53;;;25.80;85.60;;;;;;5067640;28;20456;-71
2021/09/04 10:35:57;;;;;;;2.97;1.73;;;25.80;86.40;;;;;;5104575;28;20447;-71
2021/09/04 10:38:34;;;;;;;3.00;1.60;;;25.90;86.60;;;;;;5088186;27;20456;-70
2021/09/04 10:41:24;;;;;;;2.43;1.80;;;26.10;86.30;;;;;;5092061;28;20488;-72
2021/09/04 10:43:57;;;;;;;3.40;2.30;;;26.20;86.50;;;;;;5084950;28;20527;-70
2021/09/04 10:46:26;;;;;;;2.63;1.87;;;26.20;86.80;;;;;;5098471;28;20460;-72
2021/09/04 10:48:59;;;;;;;2.40;1.90;;;26.30;86.40;;;;;;5105262;28;20499;-71
2021/09/04 10:51:46;;;;;;;3.13;1.97;;;26.40;83.60;;;;;;5093067;28;20490;-71
2021/09/04 10:54:41;;;;;;;2.37;2.03;;;26.40;85.10;;;;;;5108427;28;20490;-71
2021/09/04 10:57:16;;;;;;;3.67;1.97;;;26.50;82.00;;;;;;5091406;28;20509;-71
2021/09/04 11:00:00;;;;;;;1.90;1.70;;;26.60;84.40;;;;;;5083762;28;20957;-73
2021/09/04 11:02:42;;;;;;;2.10;1.60;;;26.80;83.00;;;;;;5099964;28;20487;-69
2021/09/04 11:05:49;;;;;;;2.93;1.87;;;26.90;83.60;;;;;;5094744;28;21001;-70
2021/09/04 11:08:36;;;;;;;2.93;1.90;;;27.00;83.70;;;;;;5091397;28;20494;-71
2021/09/04 11:11:16;;;;;;;2.33;1.93;;;27.20;83.00;;;;;;5085048;28;20472;-70
2021/09/04 11:13:44;;;;;;;2.40;1.70;;;27.30;82.20;;;;;;5094665;28;20489;-70
2021/09/04 11:16:36;;;;;;;2.57;1.77;;;27.30;81.20;;;;;;5107566;28;20518;-69
2021/09/04 11:19:07;;;;;;;3.43;1.97;;;27.60;81.10;;;;;;5107637;28;20945;-70
2021/09/04 11:22:06;;;;;;;2.90;1.57;;;27.70;80.40;;;;;;5100721;28;20529;-69
2021/09/04 11:24:35;;;;;;;2.20;1.87;;;27.90;80.10;;;;;;5083838;28;20595;-70
2021/09/04 11:27:08;;;;;;;2.00;1.70;;;28.00;80.90;;;;;;5090239;28;20529;-69
2021/09/04 11:29:44;;;;;;;4.53;2.20;;;28.30;81.20;;;;;;5099918;28;20623;-70
2021/09/04 11:32:12;;;;;;;2.37;1.80;;;28.40;77.30;;;;;;5098400;28;20592;-71
2021/09/04 11:34:50;;;;;;;2.50;2.00;;;28.70;77.50;;;;;;5099255;28;20452;-69
2021/09/04 11:37:20;;;;;;;4.43;1.83;;;28.70;75.80;;;;;;5103625;28;21357;-68
2021/09/04 11:39:49;;;;;;;3.57;2.07;;;28.70;73.40;;;;;;5099534;28;20538;-71
2021/09/04 11:42:17;;;;;;;1.87;1.53;;;28.90;73.90;;;;;;5099702;28;20448;-71
2021/09/04 11:44:49;;;;;;;2.53;1.73;;;29.00;75.10;;;;;;5095154;28;20574;-71
2021/09/04 11:47:16;;;;;;;3.07;1.80;;;29.00;74.60;;;;;;5098264;28;20498;-70
2021/09/04 11:49:46;;;;;;;2.23;1.80;;;29.00;75.10;;;;;;5104142;28;20447;-71
2021/09/04 11:52:21;;;;;;;2.33;1.87;;;28.90;75.50;;;;;;5098910;28;20508;-71
2021/09/04 11:54:49;;;;;;;2.97;2.00;;;28.80;73.10;;;;;;5092437;28;20516;-70
2021/09/04 11:57:27;;;;;;;2.40;1.90;;;29.00;75.10;;;;;;5086095;28;20512;-71
2021/09/04 12:00:08;;;;;;;2.27;1.90;;;29.00;74.50;;;;;;5112221;28;20535;-70
2021/09/04 12:02:36;;;;;;;2.13;1.73;;;28.80;74.50;;;;;;5085785;28;20495;-71
2021/09/04 12:05:15;;;;;;;3.50;2.20;;;28.60;74.10;;;;;;5095187;28;20511;-71
2021/09/04 12:07:43;;;;;;;3.00;2.10;;;28.50;75.10;;;;;;5102082;28;20460;-71
2021/09/04 12:10:14;;;;;;;2.90;2.27;;;28.40;73.40;;;;;;5108249;28;20546;-70
2021/09/04 12:12:44;;;;;;;1.90;1.70;;;28.30;72.50;;;;;;5095053;28;20537;-70
2021/09/04 12:15:13;;;;;;;2.20;1.73;;;28.40;75.70;;;;;;5111429;28;20483;-70
2021/09/04 12:17:51;;;;;;;2.23;1.70;;;28.30;71.80;;;;;;5103707;28;20456;-69
2021/09/04 12:20:27;;;;;;;2.37;1.60;;;28.20;74.20;;;;;;5111055;28;20487;-70
2021/09/04 12:22:59;;;;;;;1.70;1.50;;;28.10;73.70;;;;;;5111345;28;20450;-69
2021/09/04 12:25:31;;;;;;;3.80;2.00;;;28.10;73.90;;;;;;5111104;28;20501;-69
2021/09/04 12:28:06;;;;;;;2.43;2.00;;;28.00;74.10;;;;;;5108662;28;20528;-71
2021/09/04 12:30:34;;;;;;;2.70;1.70;;;27.80;73.80;;;;;;5102421;28;20458;-69
2021/09/04 12:33:07;;;;;;;2.03;1.80;;;28.00;74.70;;;;;;5097750;28;20484;-69
2021/09/04 12:35:56;;;;;;;2.93;2.07;;;28.00;73.80;;;;;;5100149;28;20455;-71
2021/09/04 12:38:25;;;;;;;3.57;1.80;;;28.10;75.00;;;;;;5102993;28;20537;-70
2021/09/04 12:41:07;;;;;;;3.07;2.00;;;28.30;74.10;;;;;;5093960;28;20488;-71
2021/09/04 12:43:53;;;;;;;3.30;2.03;;;28.40;71.30;;;;;;5094185;28;20942;-68
2021/09/04 12:46:35;;;;;;;2.80;1.77;;;28.60;72.00;;;;;;5099127;28;21047;-70
2021/09/04 12:49:18;;;;;;;2.40;1.80;;;28.60;72.50;;;;;;5098318;28;20541;-69
2021/09/04 12:51:59;;;;;;;2.43;1.93;;;28.90;74.10;;;;;;5095046;28;20966;-70
2021/09/04 12:54:35;;;;;;;2.27;2.00;;;28.80;73.80;;;;;;5108025;28;20463;-70
2021/09/04 12:57:12;;;;;;;2.37;1.77;;;29.00;72.60;;;;;;5102584;28;20502;-70
2021/09/04 12:59:51;;;;;;;2.17;1.73;;;29.10;69.60;;;;;;5074869;28;20467;-73
2021/09/04 13:02:22;;;;;;;2.57;1.70;;;29.20;69.90;;;;;;5114474;28;20454;-70